Time;durP1;ratioP1;P1;durP2;ratioP2;P2;SDS_P1;SDS_P2;PMS_P1;PMS_P2;Temp;Humidity;BMP_temperature;BMP_pressure;BME280_temperature;BME280_humidity;BME280_pressure;Samples;Min_cycle;Max_cycle;Signal;HPM_P1;HPM_P2
2021/12/22 00:00:17;;;;;;;12.05;7.05;;;;;;;;;;5054151;28;20056;-56
2021/12/22 00:02:46;;;;;;;12.52;6.32;;;;;;;;;;5054852;28;20493;-56
2021/12/22 00:05:14;;;;;;;15.55;7.75;;;;;;;;;;5050413;28;20040;-55
2021/12/22 00:07:40;;;;;;;13.60;7.40;;;;;;;;;;5054146;28;20062;-59
2021/12/22 00:10:06;;;;;;;13.80;7.15;;;;;;;;;;5052274;28;20060;-55
2021/12/22 00:12:32;;;;;;;12.32;7.70;;;;;;;;;;5052006;28;20067;-52
2021/12/22 00:14:57;;;;;;;13.75;7.63;;;;;;;;;;5054727;28;20209;-50
2021/12/22 00:17:23;;;;;;;13.27;7.65;;;;;;;;;;5052542;28;20113;-57
2021/12/22 00:19:49;;;;;;;11.57;6.50;;;;;;;;;;5054603;28;20556;-57
2021/12/22 00:22:14;;;;;;;11.40;6.97;;;;;;;;;;5055621;28;20036;-52
2021/12/22 00:24:40;;;;;;;13.27;7.45;;;;;;;;;;5051910;28;20504;-53
2021/12/22 00:27:06;;;;;;;14.85;6.82;;;;;;;;;;5051356;28;20047;-54
2021/12/22 00:29:32;;;;;;;12.93;6.80;;;;;;;;;;5054668;28;20144;-56
2021/12/22 00:32:13;;;;;;;11.10;6.15;;;;;;;;;;5054797;28;20831;-58
2021/12/22 00:34:46;;;;;;;12.00;6.85;;;;;;;;;;5052308;28;20462;-58
2021/12/22 00:37:14;;;;;;;11.70;6.82;;;;;;;;;;5053054;28;20060;-50
2021/12/22 00:39:39;;;;;;;10.65;6.20;;;;;;;;;;5051843;28;20561;-56
2021/12/22 00:42:05;;;;;;;14.07;6.65;;;;;;;;;;5052174;28;20044;-55
2021/12/22 00:44:31;;;;;;;12.60;6.60;;;;;;;;;;5046202;28;20132;-52
2021/12/22 00:46:57;;;;;;;11.00;6.03;;;;;;;;;;5051948;28;20116;-52
2021/12/22 00:49:23;;;;;;;9.90;6.03;;;;;;;;;;5051959;28;20037;-58
2021/12/22 00:51:48;;;;;;;12.95;6.18;;;;;;;;;;5055021;28;20617;-54
2021/12/22 00:54:14;;;;;;;11.13;5.95;;;;;;;;;;5051080;28;20082;-54
2021/12/22 00:56:40;;;;;;;12.85;6.43;;;;;;;;;;5052613;28;20091;-52
2021/12/22 00:59:06;;;;;;;10.90;6.85;;;;;;;;;;5050984;28;20048;-56
2021/12/22 01:01:31;;;;;;;14.88;6.97;;;;;;;;;;5051394;28;20045;-58
2021/12/22 01:03:57;;;;;;;12.68;7.38;;;;;;;;;;5054045;28;20551;-59
2021/12/22 01:06:23;;;;;;;14.93;8.02;;;;;;;;;;5050735;28;20125;-56
2021/12/22 01:08:50;;;;;;;11.70;7.20;;;;;;;;;;5056477;28;20272;-56
2021/12/22 01:11:16;;;;;;;12.35;7.55;;;;;;;;;;5051067;28;20056;-55
2021/12/22 01:13:41;;;;;;;14.80;7.35;;;;;;;;;;5056754;28;20064;-55
2021/12/22 01:16:07;;;;;;;14.45;8.13;;;;;;;;;;5052146;28;20056;-57
2021/12/22 01:18:35;;;;;;;13.07;7.43;;;;;;;;;;5049892;28;20045;-54
2021/12/22 01:21:14;;;;;;;17.42;7.90;;;;;;;;;;5052479;28;20037;-58
2021/12/22 01:23:58;;;;;;;15.38;8.45;;;;;;;;;;5051226;28;20040;-53
2021/12/22 01:26:24;;;;;;;17.23;8.35;;;;;;;;;;5050849;28;20072;-54
2021/12/22 01:28:49;;;;;;;17.23;7.57;;;;;;;;;;5050751;28;20033;-57
2021/12/22 01:31:17;;;;;;;14.55;8.05;;;;;;;;;;5053391;28;20053;-56
2021/12/22 01:33:42;;;;;;;15.88;8.13;;;;;;;;;;5053714;28;20090;-56
2021/12/22 01:36:08;;;;;;;15.23;8.32;;;;;;;;;;5051078;28;20052;-55
2021/12/22 01:38:34;;;;;;;15.57;8.23;;;;;;;;;;5051050;28;20037;-58
2021/12/22 01:41:00;;;;;;;16.30;8.63;;;;;;;;;;5051341;28;20320;-51
2021/12/22 01:43:25;;;;;;;15.75;7.28;;;;;;;;;;5052070;28;20083;-56
2021/12/22 01:51:54;;;;;;;19.80;9.13;;;;;;;;;;5051866;28;20523;-56
2021/12/22 01:54:19;;;;;;;13.85;8.43;;;;;;;;;;5053076;28;20043;-51
2021/12/22 01:56:49;;;;;;;20.60;9.27;;;;;;;;;;5052494;28;20037;-59
2021/12/22 01:59:16;;;;;;;14.32;8.82;;;;;;;;;;5056604;28;20028;-57
2021/12/22 02:01:42;;;;;;;15.77;8.50;;;;;;;;;;5051763;28;20682;-57
2021/12/22 02:04:13;;;;;;;16.35;8.23;;;;;;;;;;5052625;28;20044;-55
2021/12/22 02:06:40;;;;;;;17.40;8.90;;;;;;;;;;5054611;28;20045;-60
2021/12/22 02:09:05;;;;;;;17.38;9.15;;;;;;;;;;5052236;28;20610;-57
2021/12/22 02:11:32;;;;;;;16.88;9.07;;;;;;;;;;5051261;28;20061;-52
2021/12/22 02:14:02;;;;;;;14.75;8.80;;;;;;;;;;5053970;28;20028;-52
2021/12/22 02:16:31;;;;;;;16.00;8.18;;;;;;;;;;5048503;28;20508;-51
2021/12/22 02:18:59;;;;;;;15.38;9.43;;;;;;;;;;5054807;28;20419;-55
2021/12/22 02:21:28;;;;;;;15.88;9.02;;;;;;;;;;5054789;28;20037;-52
2021/12/22 02:23:54;;;;;;;16.63;9.80;;;;;;;;;;5055272;28;20060;-51
2021/12/22 02:26:28;;;;;;;18.77;9.38;;;;;;;;;;5055849;28;20052;-58
2021/12/22 02:28:59;;;;;;;18.15;9.73;;;;;;;;;;5054317;28;20067;-55
2021/12/22 02:31:26;;;;;;;13.45;8.38;;;;;;;;;;5053601;28;20044;-56
2021/12/22 02:33:52;;;;;;;13.70;9.18;;;;;;;;;;5057461;28;20044;-54
2021/12/22 02:38:46;;;;;;;15.50;8.63;;;;;;;;;;5055214;28;20087;-57
2021/12/22 02:41:15;;;;;;;16.83;8.45;;;;;;;;;;5054384;28;20454;-55
2021/12/22 02:43:51;;;;;;;18.15;9.63;;;;;;;;;;5054126;28;20124;-58
2021/12/22 02:46:21;;;;;;;15.90;9.60;;;;;;;;;;5054421;28;20442;-58
2021/12/22 02:48:48;;;;;;;18.48;8.82;;;;;;;;;;5050380;28;20099;-57
2021/12/22 02:51:14;;;;;;;16.92;9.07;;;;;;;;;;5055525;28;20032;-57
2021/12/22 02:53:59;;;;;;;13.35;7.85;;;;;;;;;;5053094;28;20694;-57
2021/12/22 02:56:31;;;;;;;14.70;8.95;;;;;;;;;;5052018;28;20037;-59
2021/12/22 02:59:14;;;;;;;16.63;9.32;;;;;;;;;;5052582;28;20044;-57
2021/12/22 03:04:27;;;;;;;15.60;8.35;;;;;;;;;;5054932;28;20488;-54
2021/12/22 03:06:58;;;;;;;14.13;8.27;;;;;;;;;;5053781;28;20036;-56
2021/12/22 03:09:29;;;;;;;18.77;8.80;;;;;;;;;;5053460;28;20102;-54
2021/12/22 03:12:00;;;;;;;14.75;7.85;;;;;;;;;;5051571;28;20376;-51
2021/12/22 03:14:26;;;;;;;14.15;8.02;;;;;;;;;;5054366;28;20358;-55
2021/12/22 03:16:52;;;;;;;15.38;7.65;;;;;;;;;;5056173;28;20059;-52
2021/12/22 03:19:21;;;;;;;17.38;7.97;;;;;;;;;;5051927;28;20040;-56
2021/12/22 03:21:51;;;;;;;13.73;6.80;;;;;;;;;;5058326;28;20056;-54
2021/12/22 03:24:19;;;;;;;11.60;6.90;;;;;;;;;;5059213;28;20975;-52
2021/12/22 03:26:45;;;;;;;12.82;8.15;;;;;;;;;;5054143;28;20408;-55
2021/12/22 03:29:16;;;;;;;12.40;7.57;;;;;;;;;;5052846;28;20044;-53
2021/12/22 03:31:43;;;;;;;12.82;8.15;;;;;;;;;;5057133;28;20043;-51
2021/12/22 03:34:09;;;;;;;13.10;7.22;;;;;;;;;;5053565;28;20037;-54
2021/12/22 03:36:35;;;;;;;13.45;7.55;;;;;;;;;;5056024;28;20504;-52
2021/12/22 03:39:02;;;;;;;15.77;7.45;;;;;;;;;;5055464;28;20392;-50
2021/12/22 03:41:27;;;;;;;13.27;8.13;;;;;;;;;;5053594;28;20091;-50
2021/12/22 03:43:53;;;;;;;13.90;7.45;;;;;;;;;;5053825;28;20041;-59
2021/12/22 03:46:19;;;;;;;13.30;7.05;;;;;;;;;;5053719;28;20500;-52
2021/12/22 03:48:45;;;;;;;12.30;6.75;;;;;;;;;;5052721;28;20047;-55
2021/12/22 03:51:10;;;;;;;14.27;7.32;;;;;;;;;;5053409;28;20432;-50
2021/12/22 03:53:36;;;;;;;11.75;7.35;;;;;;;;;;5054249;28;20500;-56
2021/12/22 03:56:02;;;;;;;11.45;7.22;;;;;;;;;;5053101;28;20184;-51
2021/12/22 03:58:28;;;;;;;14.60;8.27;;;;;;;;;;5051997;28;20056;-53
2021/12/22 04:00:55;;;;;;;19.02;8.75;;;;;;;;;;5053310;28;20037;-57
2021/12/22 04:03:24;;;;;;;18.38;9.10;;;;;;;;;;5054004;28;20055;-52
2021/12/22 04:05:50;;;;;;;19.27;9.55;;;;;;;;;;5039077;28;20043;-51
2021/12/22 04:08:18;;;;;;;19.20;9.52;;;;;;;;;;5051056;28;20032;-56
2021/12/22 04:10:46;;;;;;;15.40;10.18;;;;;;;;;;5054463;28;20392;-53
2021/12/22 04:13:12;;;;;;;20.38;10.45;;;;;;;;;;5052268;28;20059;-52
2021/12/22 04:15:38;;;;;;;15.60;9.60;;;;;;;;;;5053101;28;20128;-51
2021/12/22 04:18:04;;;;;;;14.05;9.13;;;;;;;;;;5053381;28;20040;-57
2021/12/22 04:20:30;;;;;;;16.10;9.93;;;;;;;;;;5051653;28;20048;-56
2021/12/22 04:22:57;;;;;;;19.40;10.63;;;;;;;;;;5055152;28;20109;-54
2021/12/22 04:25:22;;;;;;;17.98;10.38;;;;;;;;;;5046684;28;20510;-52
2021/12/22 04:27:50;;;;;;;19.23;10.90;;;;;;;;;;5053299;28;20083;-55
2021/12/22 04:30:16;;;;;;;21.52;11.35;;;;;;;;;;5053029;28;20049;-58
2021/12/22 04:32:42;;;;;;;18.30;10.82;;;;;;;;;;5052292;28;20071;-54
2021/12/22 04:35:07;;;;;;;15.57;9.80;;;;;;;;;;5053931;28;20036;-54
2021/12/22 04:37:33;;;;;;;23.02;10.73;;;;;;;;;;5050686;28;20056;-49
2021/12/22 04:39:59;;;;;;;20.20;9.98;;;;;;;;;;5053663;28;20047;-56
2021/12/22 04:42:25;;;;;;;22.75;11.32;;;;;;;;;;5051237;28;20053;-55
2021/12/22 04:44:53;;;;;;;20.50;11.30;;;;;;;;;;5053517;28;20037;-53
2021/12/22 04:47:20;;;;;;;20.25;11.00;;;;;;;;;;5051735;28;20163;-52
2021/12/22 04:49:46;;;;;;;21.80;11.07;;;;;;;;;;5048736;28;20124;-52
2021/12/22 04:52:17;;;;;;;19.30;11.38;;;;;;;;;;5053945;28;20119;-57
2021/12/22 04:54:50;;;;;;;22.85;12.00;;;;;;;;;;5051001;28;20059;-54
2021/12/22 04:57:16;;;;;;;19.85;10.00;;;;;;;;;;5052920;28;20132;-55
2021/12/22 04:59:42;;;;;;;20.52;11.00;;;;;;;;;;5053445;28;20121;-56
2021/12/22 05:02:09;;;;;;;21.17;10.75;;;;;;;;;;5055190;28;20573;-54
2021/12/22 05:04:35;;;;;;;18.85;9.60;;;;;;;;;;5053846;28;20117;-53
2021/12/22 05:07:01;;;;;;;18.20;9.90;;;;;;;;;;5053863;28;20076;-58
2021/12/22 05:09:26;;;;;;;22.02;10.88;;;;;;;;;;5051696;28;20053;-53
2021/12/22 05:11:52;;;;;;;24.58;10.75;;;;;;;;;;5054819;28;20080;-57
2021/12/22 05:14:18;;;;;;;20.60;11.07;;;;;;;;;;5051962;28;20401;-56
2021/12/22 05:16:46;;;;;;;17.90;9.45;;;;;;;;;;5052419;28;20047;-59
2021/12/22 05:19:15;;;;;;;19.02;9.38;;;;;;;;;;5049847;28;20044;-53
2021/12/22 05:21:43;;;;;;;19.67;8.85;;;;;;;;;;5053615;28;20049;-53
2021/12/22 05:24:08;;;;;;;14.63;8.35;;;;;;;;;;5047510;28;20036;-58
2021/12/22 05:26:34;;;;;;;14.68;8.20;;;;;;;;;;5051480;28;20396;-56
2021/12/22 05:29:00;;;;;;;17.30;8.88;;;;;;;;;;5053836;28;20033;-51
2021/12/22 05:31:27;;;;;;;14.05;7.43;;;;;;;;;;5043099;28;20404;-51
2021/12/22 05:33:53;;;;;;;18.33;8.82;;;;;;;;;;5053624;28;20047;-59
2021/12/22 05:36:19;;;;;;;14.88;8.23;;;;;;;;;;5051041;28;20041;-52
2021/12/22 05:38:44;;;;;;;20.30;9.13;;;;;;;;;;5048067;28;20587;-58
2021/12/22 05:41:10;;;;;;;14.32;8.63;;;;;;;;;;5053010;28;20132;-59
2021/12/22 05:43:36;;;;;;;15.23;8.68;;;;;;;;;;5049742;28;20047;-56
2021/12/22 05:46:01;;;;;;;14.65;7.93;;;;;;;;;;5053957;28;20075;-56
2021/12/22 05:48:28;;;;;;;12.57;6.97;;;;;;;;;;5050505;28;20110;-55
2021/12/22 05:50:57;;;;;;;12.63;7.65;;;;;;;;;;5051844;28;20045;-58
2021/12/22 05:53:23;;;;;;;14.60;8.25;;;;;;;;;;5055350;28;20060;-55
2021/12/22 05:55:49;;;;;;;16.00;9.55;;;;;;;;;;5055218;28;20052;-45
2021/12/22 05:58:14;;;;;;;17.50;9.93;;;;;;;;;;5054460;28;20080;-48
2021/12/22 06:00:40;;;;;;;17.77;9.82;;;;;;;;;;5056538;28;20468;-44
2021/12/22 06:03:06;;;;;;;17.63;9.77;;;;;;;;;;5055127;28;20134;-47
2021/12/22 06:05:32;;;;;;;16.50;9.68;;;;;;;;;;5054498;28;20068;-44
2021/12/22 06:07:58;;;;;;;14.80;9.13;;;;;;;;;;5056640;28;20057;-52
2021/12/22 06:10:23;;;;;;;15.63;9.55;;;;;;;;;;5054231;28;20099;-43
2021/12/22 06:12:49;;;;;;;18.42;9.57;;;;;;;;;;5057033;28;20127;-48
2021/12/22 06:15:15;;;;;;;13.48;8.48;;;;;;;;;;5056401;28;20137;-46
2021/12/22 06:17:40;;;;;;;16.60;8.85;;;;;;;;;;5054320;28;20045;-46
2021/12/22 06:20:07;;;;;;;17.88;8.90;;;;;;;;;;5055052;28;20445;-44
2021/12/22 06:22:34;;;;;;;15.80;8.80;;;;;;;;;;5052646;28;20041;-46
2021/12/22 06:25:00;;;;;;;15.63;8.38;;;;;;;;;;5053028;28;20043;-43
2021/12/22 06:27:26;;;;;;;18.73;9.82;;;;;;;;;;5056108;28;20064;-48
2021/12/22 06:29:51;;;;;;;20.30;10.25;;;;;;;;;;5052722;28;20567;-46
2021/12/22 06:32:17;;;;;;;17.13;9.18;;;;;;;;;;5054534;28;20061;-45
2021/12/22 06:34:43;;;;;;;20.52;10.27;;;;;;;;;;5056338;28;20218;-46
2021/12/22 06:37:09;;;;;;;20.77;10.45;;;;;;;;;;5054332;28;20064;-47
2021/12/22 06:39:35;;;;;;;19.35;10.23;;;;;;;;;;5055540;28;20407;-46
2021/12/22 06:42:01;;;;;;;17.77;10.07;;;;;;;;;;5055303;28;20045;-46
2021/12/22 06:44:27;;;;;;;19.98;10.23;;;;;;;;;;5048478;28;20045;-49
2021/12/22 06:46:52;;;;;;;20.80;9.38;;;;;;;;;;5046043;28;20044;-46
2021/12/22 06:49:18;;;;;;;24.00;9.57;;;;;;;;;;5052975;28;20033;-48
2021/12/22 06:51:44;;;;;;;20.60;10.95;;;;;;;;;;5056441;28;20029;-45
2021/12/22 06:54:10;;;;;;;18.23;10.60;;;;;;;;;;5049190;28;20131;-45
2021/12/22 06:56:38;;;;;;;19.70;11.45;;;;;;;;;;5054275;28;20124;-47
2021/12/22 06:59:03;;;;;;;21.05;10.70;;;;;;;;;;5047161;28;20037;-48
2021/12/22 07:01:32;;;;;;;23.15;11.25;;;;;;;;;;5050798;28;20603;-44
2021/12/22 07:03:58;;;;;;;20.27;11.32;;;;;;;;;;5053305;28;20083;-45
2021/12/22 07:06:24;;;;;;;20.58;10.73;;;;;;;;;;5052057;28;20060;-43
2021/12/22 07:08:49;;;;;;;25.52;12.32;;;;;;;;;;5049281;28;20939;-50
2021/12/22 07:11:15;;;;;;;23.83;12.63;;;;;;;;;;5048734;28;20147;-44
2021/12/22 07:13:41;;;;;;;28.33;13.50;;;;;;;;;;5047898;28;20551;-48
2021/12/22 07:16:07;;;;;;;29.98;12.73;;;;;;;;;;5050869;28;20043;-43
2021/12/22 07:18:34;;;;;;;27.35;13.70;;;;;;;;;;5051305;28;20044;-43
2021/12/22 07:21:00;;;;;;;22.73;11.85;;;;;;;;;;5049904;28;20064;-45
2021/12/22 07:23:26;;;;;;;21.92;12.02;;;;;;;;;;5052301;28;20140;-43
2021/12/22 07:25:51;;;;;;;27.80;13.88;;;;;;;;;;5049509;28;20730;-46
2021/12/22 07:28:17;;;;;;;24.00;13.50;;;;;;;;;;5051914;28;20063;-42
2021/12/22 07:30:43;;;;;;;25.63;13.77;;;;;;;;;;5050843;28;20815;-49
2021/12/22 07:33:09;;;;;;;27.27;14.07;;;;;;;;;;5051977;28;20068;-44
2021/12/22 07:35:53;;;;;;;24.65;14.48;;;;;;;;;;5049870;28;20036;-50
2021/12/22 07:38:24;;;;;;;28.60;13.85;;;;;;;;;;5054067;28;20051;-44
2021/12/22 07:40:54;;;;;;;21.65;12.98;;;;;;;;;;5052828;28;20068;-47
2021/12/22 07:43:20;;;;;;;20.80;11.73;;;;;;;;;;5053794;28;20500;-43
2021/12/22 07:45:46;;;;;;;23.45;13.77;;;;;;;;;;5053108;28;20044;-42
2021/12/22 07:48:12;;;;;;;23.88;12.82;;;;;;;;;;5046625;28;20048;-47
2021/12/22 07:50:38;;;;;;;23.08;12.52;;;;;;;;;;5054166;28;20041;-46
2021/12/22 07:53:03;;;;;;;21.45;12.65;;;;;;;;;;5048597;28;20037;-46
2021/12/22 07:55:29;;;;;;;22.35;12.35;;;;;;;;;;5050626;28;20131;-46
2021/12/22 07:57:55;;;;;;;23.88;12.50;;;;;;;;;;5048695;28;20060;-44
2021/12/22 08:00:20;;;;;;;20.63;11.57;;;;;;;;;;5047976;28;20076;-50
2021/12/22 08:02:46;;;;;;;27.95;13.48;;;;;;;;;;5045945;28;20598;-41
2021/12/22 08:05:12;;;;;;;25.48;12.73;;;;;;;;;;5048472;28;20035;-45
2021/12/22 08:07:38;;;;;;;20.77;12.00;;;;;;;;;;5048967;28;20044;-42
2021/12/22 08:10:06;;;;;;;26.63;12.95;;;;;;;;;;5052273;28;20032;-47
2021/12/22 08:12:32;;;;;;;23.95;12.77;;;;;;;;;;5047616;28;20041;-49
2021/12/22 08:14:57;;;;;;;20.42;12.48;;;;;;;;;;5046550;28;20144;-43
2021/12/22 08:17:23;;;;;;;22.70;12.45;;;;;;;;;;5050207;28;20117;-49
2021/12/22 08:19:49;;;;;;;20.70;12.15;;;;;;;;;;5052661;28;20045;-46
2021/12/22 08:22:15;;;;;;;23.30;13.00;;;;;;;;;;5050048;28;20493;-46
2021/12/22 08:24:41;;;;;;;19.38;11.65;;;;;;;;;;5049390;28;20044;-45
2021/12/22 08:27:07;;;;;;;24.88;13.13;;;;;;;;;;5052585;28;20442;-48
2021/12/22 08:29:33;;;;;;;21.52;12.55;;;;;;;;;;5048375;28;20060;-43
2021/12/22 08:31:58;;;;;;;23.10;12.73;;;;;;;;;;5050664;28;20040;-42
2021/12/22 08:34:28;;;;;;;24.80;12.45;;;;;;;;;;5051910;28;20424;-43
2021/12/22 08:39:40;;;;;;;24.35;12.00;;;;;;;;;;5048369;28;20520;-44
2021/12/22 08:42:07;;;;;;;23.55;12.63;;;;;;;;;;5051994;28;20040;-45
2021/12/22 08:44:33;;;;;;;20.98;12.25;;;;;;;;;;5051026;28;20048;-46
2021/12/22 08:46:59;;;;;;;24.15;12.15;;;;;;;;;;5052943;28;20128;-41
2021/12/22 08:49:25;;;;;;;23.15;12.73;;;;;;;;;;5051475;28;20487;-44
2021/12/22 08:51:51;;;;;;;22.95;12.15;;;;;;;;;;5050677;28;20040;-44
2021/12/22 08:54:17;;;;;;;21.08;12.27;;;;;;;;;;5052985;28;20045;-44
2021/12/22 08:56:43;;;;;;;24.23;12.85;;;;;;;;;;5050146;28;20049;-50
2021/12/22 08:59:11;;;;;;;24.05;11.95;;;;;;;;;;5052050;28;20072;-45
2021/12/22 09:01:37;;;;;;;19.55;12.35;;;;;;;;;;5051122;28;20642;-49
2021/12/22 09:04:02;;;;;;;19.38;11.57;;;;;;;;;;5051895;28;20076;-42
2021/12/22 09:06:28;;;;;;;20.02;11.07;;;;;;;;;;5048519;28;20068;-45
2021/12/22 09:08:54;;;;;;;23.40;11.60;;;;;;;;;;5052485;28;20054;-50
2021/12/22 09:11:20;;;;;;;21.33;11.35;;;;;;;;;;5051860;28;20044;-45
2021/12/22 09:13:46;;;;;;;16.67;10.77;;;;;;;;;;5047743;28;20148;-46
2021/12/22 09:16:13;;;;;;;15.68;10.68;;;;;;;;;;5051836;28;20043;-47
2021/12/22 09:18:39;;;;;;;19.23;11.23;;;;;;;;;;5049988;28;20041;-49
2021/12/22 09:21:06;;;;;;;18.88;10.63;;;;;;;;;;5051442;28;20136;-48
2021/12/22 09:23:32;;;;;;;22.05;12.60;;;;;;;;;;5051726;28;20098;-42
2021/12/22 09:25:57;;;;;;;18.52;10.35;;;;;;;;;;5053764;28;20125;-43
2021/12/22 09:28:23;;;;;;;20.80;11.75;;;;;;;;;;5053210;28;20385;-50
2021/12/22 09:30:49;;;;;;;20.65;11.38;;;;;;;;;;5051907;28;20051;-43
2021/12/22 09:33:17;;;;;;;18.08;11.45;;;;;;;;;;5056144;28;20029;-43
2021/12/22 09:35:45;;;;;;;21.50;11.77;;;;;;;;;;5059372;28;20479;-47
2021/12/22 09:38:11;;;;;;;23.63;12.35;;;;;;;;;;5053047;28;20063;-47
2021/12/22 09:40:37;;;;;;;28.08;14.30;;;;;;;;;;5054212;28;20123;-44
2021/12/22 09:43:04;;;;;;;21.95;12.63;;;;;;;;;;5053616;28;20056;-45
2021/12/22 09:45:30;;;;;;;21.23;12.45;;;;;;;;;;5053407;28;20510;-41
2021/12/22 09:50:43;;;;;;;26.15;12.90;;;;;;;;;;5052012;28;20267;-41
2021/12/22 09:53:09;;;;;;;23.60;12.65;;;;;;;;;;5056193;28;20032;-44
2021/12/22 09:55:35;;;;;;;25.33;14.13;;;;;;;;;;5053296;28;20072;-44
2021/12/22 09:58:02;;;;;;;26.35;13.40;;;;;;;;;;5054746;28;20037;-43
2021/12/22 10:00:28;;;;;;;25.15;14.98;;;;;;;;;;5053615;28;20064;-47
2021/12/22 10:02:53;;;;;;;25.75;14.88;;;;;;;;;;5058040;28;20344;-43
2021/12/22 10:05:19;;;;;;;24.60;14.88;;;;;;;;;;5052469;28;20049;-40
2021/12/22 10:07:45;;;;;;;27.63;14.80;;;;;;;;;;5056490;28;20100;-47
2021/12/22 10:10:13;;;;;;;28.30;16.15;;;;;;;;;;5054353;28;20489;-47
2021/12/22 10:12:39;;;;;;;28.48;15.48;;;;;;;;;;5053946;28;20041;-48
2021/12/22 10:15:08;;;;;;;28.98;16.98;;;;;;;;;;5055064;28;20135;-44
2021/12/22 10:17:35;;;;;;;31.33;15.95;;;;;;;;;;5053786;28;20045;-44
2021/12/22 10:20:05;;;;;;;29.85;17.13;;;;;;;;;;5056581;28;20462;-47
2021/12/22 10:22:33;;;;;;;30.70;17.27;;;;;;;;;;5054358;28;20460;-48
2021/12/22 10:25:09;;;;;;;34.03;17.88;;;;;;;;;;5056847;28;20147;-41
2021/12/22 10:27:35;;;;;;;;;;;;;;;;;;5054742;28;20120;-44
2021/12/22 10:30:19;;;;;;;29.05;17.17;;;;;;;;;;5054483;28;19947;-45
2021/12/22 10:32:45;;;;;;;28.85;17.05;;;;;;;;;;5056077;28;20032;-48
2021/12/22 10:35:11;;;;;;;26.90;16.38;;;;;;;;;;5054192;28;20573;-46
2021/12/22 10:37:42;;;;;;;29.08;16.23;;;;;;;;;;5052692;28;20133;-47
2021/12/22 10:40:35;;;;;;;25.42;15.05;;;;;;;;;;5053224;28;20400;-42
2021/12/22 10:43:02;;;;;;;25.90;14.50;;;;;;;;;;5055402;28;20078;-45
2021/12/22 10:45:31;;;;;;;24.35;14.93;;;;;;;;;;5054370;28;20045;-43
2021/12/22 10:50:43;;;;;;;24.55;14.70;;;;;;;;;;5055301;28;20178;-40
2021/12/22 10:53:12;;;;;;;23.17;14.65;;;;;;;;;;5052764;28;20051;-42
2021/12/22 10:55:43;;;;;;;20.80;12.63;;;;;;;;;;5056007;28;20047;-46
2021/12/22 10:58:22;;;;;;;20.80;12.43;;;;;;;;;;5054023;28;20504;-44
2021/12/22 11:01:10;;;;;;;24.75;14.70;;;;;;;;;;5054184;28;20037;-43
2021/12/22 11:03:53;;;;;;;20.17;12.75;;;;;;;;;;5052569;28;20041;-47
2021/12/22 11:06:20;;;;;;;23.08;13.02;;;;;;;;;;5052534;28;20044;-44
2021/12/22 11:08:53;;;;;;;17.55;10.98;;;;;;;;;;5053403;28;20097;-43
2021/12/22 11:11:19;;;;;;;17.58;10.70;;;;;;;;;;5048833;28;20036;-42
2021/12/22 11:13:45;;;;;;;19.95;11.93;;;;;;;;;;5053450;28;20051;-48
2021/12/22 11:16:12;;;;;;;18.75;11.70;;;;;;;;;;5052685;28;20107;-42
2021/12/22 11:18:38;;;;;;;15.23;10.68;;;;;;;;;;5051998;28;20531;-42
2021/12/22 11:21:13;;;;;;;17.55;11.45;;;;;;;;;;5055217;28;20464;-46
2021/12/22 11:23:40;;;;;;;16.67;11.32;;;;;;;;;;5056443;28;20041;-40
2021/12/22 11:26:06;;;;;;;16.35;10.75;;;;;;;;;;5055034;28;20407;-44
2021/12/22 11:28:34;;;;;;;15.05;10.35;;;;;;;;;;5055395;28;20048;-43
2021/12/22 11:31:00;;;;;;;14.68;10.27;;;;;;;;;;5054016;28;20369;-45
2021/12/22 11:33:27;;;;;;;12.27;9.77;;;;;;;;;;5053376;28;20037;-46
2021/12/22 11:35:55;;;;;;;14.52;8.90;;;;;;;;;;5053211;28;20033;-48
2021/12/22 11:38:21;;;;;;;13.15;8.98;;;;;;;;;;5052848;28;20045;-45
2021/12/22 11:40:55;;;;;;;14.43;9.07;;;;;;;;;;5055691;28;20044;-48
2021/12/22 11:43:21;;;;;;;12.02;9.15;;;;;;;;;;5050965;28;20076;-51
2021/12/22 11:45:48;;;;;;;12.00;8.90;;;;;;;;;;5054954;28;20052;-46
2021/12/22 11:48:15;;;;;;;13.20;8.88;;;;;;;;;;5050670;28;20040;-41
2021/12/22 11:50:45;;;;;;;11.77;9.80;;;;;;;;;;5052252;28;20041;-44
2021/12/22 11:53:11;;;;;;;11.65;8.77;;;;;;;;;;5052754;28;20040;-44
2021/12/22 11:55:38;;;;;;;11.98;9.77;;;;;;;;;;5052061;28;20080;-47
2021/12/22 11:58:20;;;;;;;11.93;8.70;;;;;;;;;;5053324;28;20119;-46
2021/12/22 12:00:55;;;;;;;10.10;7.85;;;;;;;;;;5049809;28;20032;-50
2021/12/22 12:03:30;;;;;;;13.57;10.47;;;;;;;;;;5049263;28;20041;-47
2021/12/22 12:06:03;;;;;;;13.60;9.93;;;;;;;;;;5050484;28;20287;-47
2021/12/22 12:08:35;;;;;;;13.02;9.57;;;;;;;;;;5049375;28;20045;-51
2021/12/22 12:11:01;;;;;;;14.68;9.50;;;;;;;;;;5053572;28;20503;-50
2021/12/22 12:13:36;;;;;;;11.48;9.20;;;;;;;;;;5052676;28;20037;-51
2021/12/22 12:21:55;;;;;;;30.17;12.70;;;;;;;;;;5053245;28;20043;-47
2021/12/22 12:24:30;;;;;;;14.68;9.98;;;;;;;;;;5054818;28;20579;-47
2021/12/22 12:26:57;;;;;;;13.15;8.73;;;;;;;;;;5049241;28;20428;-46
2021/12/22 12:29:54;;;;;;;13.18;9.55;;;;;;;;;;5052911;28;20040;-46
2021/12/22 12:32:53;;;;;;;;;;;;;;;;;;5051269;28;20512;-51
2021/12/22 12:35:19;;;;;;;13.93;8.93;;;;;;;;;;5014293;28;21211;-48
2021/12/22 12:38:12;;;;;;;13.25;9.70;;;;;;;;;;5048291;28;20041;-45
2021/12/22 12:40:58;;;;;;;17.25;10.82;;;;;;;;;;5053715;28;20037;-45
2021/12/22 12:43:42;;;;;;;12.17;9.07;;;;;;;;;;5054074;28;20532;-47
2021/12/22 12:46:35;;;;;;;14.43;9.70;;;;;;;;;;5054028;28;20032;-44
2021/12/22 12:49:07;;;;;;;14.23;9.25;;;;;;;;;;5052536;28;20431;-45
2021/12/22 12:51:42;;;;;;;16.58;10.40;;;;;;;;;;5052855;28;20482;-46
2021/12/22 12:54:25;;;;;;;11.32;8.63;;;;;;;;;;5056342;28;20035;-45
2021/12/22 12:56:59;;;;;;;13.07;8.95;;;;;;;;;;5049661;28;20098;-44
2021/12/22 12:59:37;;;;;;;14.32;9.30;;;;;;;;;;5053138;28;20044;-45
2021/12/22 13:02:04;;;;;;;13.65;9.80;;;;;;;;;;5052092;28;20036;-43
2021/12/22 13:04:38;;;;;;;11.75;8.80;;;;;;;;;;5051006;28;20507;-46
2021/12/22 13:07:07;;;;;;;14.30;9.23;;;;;;;;;;5053665;28;20051;-41
2021/12/22 13:09:40;;;;;;;14.18;9.07;;;;;;;;;;5047931;28;20048;-44
2021/12/22 13:12:15;;;;;;;12.55;8.88;;;;;;;;;;5059282;28;20082;-46
2021/12/22 13:17:35;;;;;;;14.13;9.95;;;;;;;;;;5052939;28;20411;-44
2021/12/22 13:20:01;;;;;;;11.88;9.23;;;;;;;;;;5050938;28;20033;-48
2021/12/22 13:22:28;;;;;;;10.52;9.05;;;;;;;;;;5047657;28;20106;-49
2021/12/22 13:25:19;;;;;;;13.48;9.15;;;;;;;;;;5055371;28;20518;-48
2021/12/22 13:28:18;;;;;;;13.52;9.85;;;;;;;;;;5045668;28;20037;-45
2021/12/22 13:30:46;;;;;;;15.50;10.48;;;;;;;;;;5050932;28;20473;-45
2021/12/22 13:33:20;;;;;;;16.75;11.15;;;;;;;;;;5052933;28;20124;-47
2021/12/22 13:35:51;;;;;;;17.63;11.60;;;;;;;;;;5052225;28;20113;-48
2021/12/22 13:38:21;;;;;;;17.80;11.77;;;;;;;;;;5054297;28;20443;-44
2021/12/22 13:40:49;;;;;;;14.73;11.10;;;;;;;;;;5055604;28;20060;-43
2021/12/22 13:43:32;;;;;;;16.15;11.30;;;;;;;;;;5053781;28;20351;-48
2021/12/22 13:46:25;;;;;;;16.75;12.38;;;;;;;;;;5059693;28;20063;-46
2021/12/22 13:49:23;;;;;;;19.67;12.23;;;;;;;;;;5055401;28;20574;-44
2021/12/22 13:51:52;;;;;;;15.80;11.18;;;;;;;;;;5059631;28;20063;-45
2021/12/22 13:54:29;;;;;;;15.88;10.90;;;;;;;;;;5060328;28;20040;-44
2021/12/22 13:57:00;;;;;;;16.52;10.73;;;;;;;;;;5054912;28;20544;-47
2021/12/22 13:59:30;;;;;;;15.90;10.50;;;;;;;;;;5057119;28;20071;-48
2021/12/22 14:01:58;;;;;;;16.17;11.65;;;;;;;;;;5059656;28;20032;-52
2021/12/22 14:04:33;;;;;;;17.50;11.13;;;;;;;;;;5059448;28;20049;-47
2021/12/22 14:07:11;;;;;;;16.53;11.20;;;;;;;;;;5045800;28;20041;-44
2021/12/22 14:09:45;;;;;;;16.85;11.55;;;;;;;;;;5047729;28;20782;-42
2021/12/22 14:12:13;;;;;;;17.08;11.52;;;;;;;;;;5052225;28;20051;-47
2021/12/22 14:14:50;;;;;;;17.48;12.27;;;;;;;;;;5056351;28;20046;-45
2021/12/22 14:17:33;;;;;;;18.30;12.23;;;;;;;;;;5054601;28;20025;-50
2021/12/22 14:20:15;;;;;;;18.55;12.30;;;;;;;;;;5053986;28;20050;-45
2021/12/22 14:22:49;;;;;;;19.98;12.00;;;;;;;;;;5051079;28;20112;-43
2021/12/22 14:25:21;;;;;;;19.67;13.73;;;;;;;;;;5054860;28;20044;-45
2021/12/22 14:27:52;;;;;;;21.88;14.57;;;;;;;;;;5050637;28;20029;-46
2021/12/22 14:30:21;;;;;;;20.17;13.10;;;;;;;;;;5056915;28;20048;-47
2021/12/22 14:33:14;;;;;;;21.08;13.32;;;;;;;;;;5054197;28;20040;-46
2021/12/22 14:35:54;;;;;;;20.85;13.90;;;;;;;;;;5049244;28;20567;-46
2021/12/22 14:38:22;;;;;;;19.83;13.95;;;;;;;;;;5050579;28;20057;-46
2021/12/22 14:40:59;;;;;;;20.40;14.05;;;;;;;;;;5051189;28;20043;-45
2021/12/22 14:43:34;;;;;;;20.95;13.65;;;;;;;;;;5049881;28;20508;-44
2021/12/22 14:46:00;;;;;;;20.48;13.90;;;;;;;;;;5053626;28;20124;-48
2021/12/22 14:48:30;;;;;;;20.80;12.95;;;;;;;;;;5050719;28;20037;-44
2021/12/22 14:51:06;;;;;;;20.83;13.68;;;;;;;;;;5057015;28;20033;-50
2021/12/22 14:53:43;;;;;;;21.20;14.20;;;;;;;;;;5058191;28;20055;-49
2021/12/22 14:56:13;;;;;;;24.83;13.65;;;;;;;;;;5054189;28;20543;-50
2021/12/22 14:58:41;;;;;;;21.58;13.88;;;;;;;;;;5050107;28;20063;-47
2021/12/22 15:01:10;;;;;;;22.98;13.18;;;;;;;;;;5061350;28;20033;-47